To NAV CANADA Home Page Login to a new session Search on AWWS site Disclaimer Vers la page française équivalente Tips FAQ What's new on the site To the Forecasts and Observations / NOTAM section To "File a Flight Plan" website Publications and other links Update of the User's profile FIC Telephone Numbers My Weather Data Folder Route Weather Data Regional Weather Data Local Weather Data To the Forecasts and Observations / NOTAM section
Request Generated 11/13/2018 at 18:08:55 UTC . Weather information available at that time is displayed.

METAR/TAF

KUUJJUAQ/QC    

METAR CYVP 131800Z 10005KT 2SM -SN SCT010 BKN020 OVC032 M05/M07 A2995 RMK SN2SF2SC2SC2 SLP146=
METAR CYVP 131700Z CCA 11004KT 2 1/4SM -SN SCT010 BKN020 OVC030 M05/M07 A2997 RMK SN2SF2SC2SC2 /S01/ SLP154=
METAR CYVP 131700Z 11004KT 2 1/4SM -SN FEW010 SCT020 BKN030 M05/M07 A2997 RMK SN2SF1SC2SC2 SF TR SLP154=
SPECI CYVP 131647Z 10003KT 070V140 2 1/2SM -SN SCT010 BKN018 OVC030 M05/M07 A2997 RMK SN2SF2SC2SC2 SLP155=
SPECI CYVP 131635Z 12003KT 080V140 3SM -SN FEW010 SCT018 OVC030 M05/M07 A2998 RMK SN1SF1SC2SC4 VIS LWR S-W SLP157=
SPECI CYVP 131605Z 14003KT 090V160 2 1/2SM -SN SCT007 BKN018 OVC027 M06/M07 A2999 RMK SN2SF2SC1SC3 SLP161=
METAR CYVP 131600Z 12004KT 090V150 3SM -SN SCT007 BKN028 OVC042 M06/M07 A2999 RMK SN2SF1SC2SC3 VIS LWR SE-NW SLP161=

TAF CYVP 131749Z 1318/1406 11005KT 6SM -SN OVC030 TEMPO 1318/1321 2SM
-SN OVC020
FM132100 13005KT P6SM -SN OVC025
BECMG 1400/1402 VRB03KT
RMK NXT FCST BY 140000Z=
Your time UTC time
Weather data provided by Environment Canada and NAV CANADA